createdAt,value
2023-06-29T00:01:28.675Z,86.45
2023-06-29T00:03:55.292Z,86.65
2023-06-29T00:06:21.900Z,86.72
2023-06-29T00:08:48.809Z,87.17
2023-06-29T00:11:15.362Z,87.63
2023-06-29T00:13:42.605Z,87.40
2023-06-29T00:16:09.240Z,87.75
2023-06-29T00:18:36.125Z,87.72
2023-06-29T00:21:04.652Z,87.94
2023-06-29T00:23:33.279Z,87.91
2023-06-29T00:26:00.237Z,87.94
2023-06-29T00:28:26.708Z,88.45
2023-06-29T00:30:56.093Z,88.92
2023-06-29T00:33:22.733Z,88.49
2023-06-29T00:35:49.585Z,89.00
2023-06-29T00:38:16.246Z,88.21
2023-06-29T00:40:42.802Z,88.25
2023-06-29T00:43:09.447Z,88.86
2023-06-29T00:45:36.974Z,89.22
2023-06-29T00:48:05.414Z,89.68
2023-06-29T00:50:34.360Z,89.42
2023-06-29T00:53:00.936Z,89.96
2023-06-29T00:55:28.274Z,89.09
2023-06-29T00:57:54.849Z,89.47
2023-06-29T01:00:21.444Z,89.44
2023-06-29T01:02:50.028Z,89.46
2023-06-29T01:05:17.424Z,89.54
2023-06-29T01:08:00.330Z,89.50
2023-06-29T01:10:30.485Z,89.96
2023-06-29T01:13:00.424Z,90.42
2023-06-29T01:15:27.506Z,89.77
2023-06-29T01:17:56.665Z,90.76
2023-06-29T01:20:27.043Z,90.48
2023-06-29T01:23:00.662Z,90.55
2023-06-29T01:25:31.008Z,90.48
2023-06-29T01:27:57.593Z,90.74
2023-06-29T01:30:24.542Z,90.65
2023-06-29T01:32:51.163Z,90.34
2023-06-29T01:35:17.758Z,91.29
2023-06-29T01:37:57.755Z,91.13
2023-06-29T01:40:28.924Z,91.29
2023-06-29T01:42:58.069Z,91.07
2023-06-29T01:45:26.007Z,91.18
2023-06-29T01:47:56.797Z,90.90
2023-06-29T01:50:24.092Z,91.43
2023-06-29T01:52:50.799Z,91.44
2023-06-29T01:55:17.418Z,91.27
2023-06-29T01:57:44.143Z,91.28
2023-06-29T02:00:11.357Z,91.32
2023-06-29T02:02:40.818Z,91.98
2023-06-29T02:05:08.621Z,91.47
2023-06-29T02:07:35.218Z,91.78
2023-06-29T02:10:01.825Z,92.27
2023-06-29T02:12:28.467Z,92.29
2023-06-29T02:14:54.996Z,92.80
2023-06-29T02:17:21.618Z,93.23
2023-06-29T02:19:48.235Z,92.86
2023-06-29T02:22:14.860Z,92.89
2023-06-29T02:24:41.537Z,93.10
2023-06-29T02:27:08.037Z,93.51
2023-06-29T02:29:35.024Z,93.44
2023-06-29T02:32:01.573Z,93.16
2023-06-29T02:34:28.172Z,92.66
2023-06-29T02:36:55.282Z,93.71
2023-06-29T02:39:24.876Z,93.73
2023-06-29T02:41:51.617Z,93.98
2023-06-29T02:44:18.290Z,93.41
2023-06-29T02:46:45.357Z,94.08
2023-06-29T02:49:13.064Z,94.57
2023-06-29T02:51:39.859Z,95.10
2023-06-29T02:54:08.972Z,95.12
2023-06-29T02:56:35.528Z,95.29
2023-06-29T02:59:04.170Z,94.47
2023-06-29T03:01:31.183Z,95.04
2023-06-29T03:03:58.264Z,94.67
2023-06-29T03:06:26.602Z,95.00
2023-06-29T03:08:53.234Z,95.57
2023-06-29T03:11:19.787Z,95.40
2023-06-29T03:13:47.620Z,96.28
2023-06-29T03:16:14.241Z,96.08
2023-06-29T03:18:40.812Z,96.04
2023-06-29T03:21:16.173Z,96.19
2023-06-29T03:23:44.224Z,96.67
2023-06-29T03:26:10.742Z,96.97
2023-06-29T03:28:37.362Z,97.60
2023-06-29T03:31:04.045Z,98.58
2023-06-29T03:33:30.732Z,99.55
2023-06-29T03:35:57.253Z,99.65
2023-06-29T03:38:23.893Z,99.64
2023-06-29T03:40:50.441Z,99.88
2023-06-29T03:43:17.021Z,100.00
2023-06-29T03:45:43.904Z,100.00
2023-06-29T03:48:10.728Z,99.94
2023-06-29T03:50:37.330Z,100.00
2023-06-29T03:53:04.034Z,100.00
2023-06-29T03:55:31.046Z,100.00
2023-06-29T03:57:58.879Z,100.00
2023-06-29T04:00:25.946Z,100.00
2023-06-29T04:02:52.670Z,100.00
2023-06-29T04:05:19.608Z,100.00
2023-06-29T04:07:46.167Z,100.00
2023-06-29T04:10:12.775Z,100.00
2023-06-29T04:12:39.767Z,100.00
2023-06-29T04:15:06.901Z,100.00
2023-06-29T04:17:33.446Z,100.00
2023-06-29T04:19:59.955Z,100.00
2023-06-29T04:22:26.516Z,100.00
2023-06-29T04:24:53.126Z,100.00
2023-06-29T04:27:19.799Z,100.00
2023-06-29T04:29:46.376Z,100.00
2023-06-29T04:32:13.099Z,100.00
2023-06-29T04:34:39.706Z,100.00
2023-06-29T04:37:07.591Z,100.00
2023-06-29T04:39:34.268Z,100.00
2023-06-29T04:42:04.167Z,100.00
2023-06-29T04:44:33.785Z,100.00
2023-06-29T04:47:01.225Z,100.00
2023-06-29T04:49:33.033Z,100.00
2023-06-29T04:52:00.927Z,100.00
2023-06-29T04:54:28.585Z,100.00
2023-06-29T04:56:57.417Z,100.00
2023-06-29T04:59:25.423Z,100.00
2023-06-29T05:01:52.115Z,100.00
2023-06-29T05:04:18.854Z,100.00
2023-06-29T05:06:45.597Z,100.00
2023-06-29T05:09:12.299Z,100.00
2023-06-29T05:11:38.867Z,100.00
2023-06-29T05:14:05.400Z,100.00
2023-06-29T05:16:31.970Z,100.00
2023-06-29T05:18:58.545Z,100.00
2023-06-29T05:21:27.254Z,100.00
2023-06-29T05:23:53.899Z,100.00
2023-06-29T05:26:20.436Z,100.00
2023-06-29T05:28:56.271Z,100.00
2023-06-29T05:31:31.794Z,100.00
2023-06-29T05:33:58.457Z,100.00
2023-06-29T05:36:24.999Z,100.00
2023-06-29T05:38:51.500Z,100.00
2023-06-29T05:41:17.987Z,100.00
2023-06-29T05:43:44.839Z,99.84
2023-06-29T05:46:11.792Z,99.49
2023-06-29T05:48:38.395Z,99.00
2023-06-29T05:51:05.090Z,98.43
2023-06-29T05:53:32.582Z,98.71
2023-06-29T05:55:59.280Z,98.20
2023-06-29T05:58:25.781Z,98.05
2023-06-29T06:00:52.964Z,98.43
2023-06-29T06:03:21.505Z,97.65
2023-06-29T06:05:48.139Z,98.17
2023-06-29T06:08:15.837Z,98.34
2023-06-29T06:10:43.117Z,97.57
2023-06-29T06:13:10.391Z,97.07
2023-06-29T06:15:37.047Z,97.47
2023-06-29T06:18:03.721Z,96.71
2023-06-29T06:20:30.454Z,96.32
2023-06-29T06:22:57.085Z,96.00
2023-06-29T06:25:23.594Z,95.36
2023-06-29T06:27:50.217Z,94.87
2023-06-29T06:30:16.746Z,94.94
2023-06-29T06:32:43.373Z,93.88
2023-06-29T06:35:10.229Z,93.45
2023-06-29T06:37:37.586Z,93.34
2023-06-29T06:40:08.996Z,92.13
2023-06-29T06:42:36.261Z,92.46
2023-06-29T06:45:06.548Z,91.51
2023-06-29T06:47:37.248Z,90.96
2023-06-29T06:50:05.334Z,90.18
2023-06-29T06:52:32.079Z,89.77
2023-06-29T06:54:58.615Z,89.02
2023-06-29T06:57:25.214Z,88.92
2023-06-29T06:59:51.845Z,89.10
2023-06-29T07:02:18.537Z,89.12
2023-06-29T07:04:45.244Z,87.68
2023-06-29T07:07:11.807Z,86.92
2023-06-29T07:09:38.738Z,86.74
2023-06-29T07:12:05.788Z,86.86
2023-06-29T07:14:32.971Z,85.42
2023-06-29T07:16:59.731Z,85.76
2023-06-29T07:24:25.361Z,85.67
2023-06-29T07:26:51.949Z,84.92
2023-06-29T07:29:18.526Z,85.01
2023-06-29T07:31:45.225Z,85.31
2023-06-29T07:34:11.795Z,86.04
2023-06-29T07:36:40.402Z,84.63
2023-06-29T07:39:07.064Z,83.52
2023-06-29T07:41:33.769Z,83.78
2023-06-29T07:44:01.100Z,84.06
2023-06-29T07:46:28.173Z,84.01
2023-06-29T07:48:56.001Z,84.42
2023-06-29T07:51:23.024Z,83.58
2023-06-29T07:53:51.434Z,82.77
2023-06-29T07:56:18.700Z,82.96
2023-06-29T07:58:45.871Z,81.45
2023-06-29T08:01:13.157Z,80.54
2023-06-29T08:03:55.844Z,80.25
2023-06-29T08:08:57.349Z,78.47
2023-06-29T08:11:24.287Z,77.86
2023-06-29T08:13:50.851Z,76.14
2023-06-29T08:16:17.770Z,75.62
2023-06-29T08:18:44.571Z,73.66
2023-06-29T08:21:11.954Z,72.66
2023-06-29T08:23:38.641Z,69.73
2023-06-29T08:26:05.630Z,72.47
2023-06-29T08:28:32.286Z,72.78
2023-06-29T08:30:58.793Z,71.82
2023-06-29T08:33:25.856Z,72.21
2023-06-29T08:35:52.784Z,72.54
2023-06-29T08:38:19.783Z,73.04
2023-06-29T08:40:50.416Z,73.18
2023-06-29T08:43:18.758Z,73.62
2023-06-29T08:45:46.928Z,73.78
2023-06-29T08:48:15.165Z,73.44
2023-06-29T08:51:02.065Z,73.75
2023-06-29T08:53:29.121Z,72.85
2023-06-29T08:55:57.496Z,72.84
2023-06-29T08:58:24.825Z,72.58
2023-06-29T09:00:53.767Z,70.76
2023-06-29T09:03:22.780Z,69.67
2023-06-29T09:05:49.447Z,70.20
2023-06-29T09:08:16.028Z,66.80
2023-06-29T09:10:42.846Z,67.76
2023-06-29T09:13:10.586Z,67.58
2023-06-29T09:15:39.561Z,65.94
2023-06-29T09:18:06.913Z,65.28
2023-06-29T09:20:37.095Z,64.68
2023-06-29T09:23:07.232Z,65.21
2023-06-29T09:25:35.550Z,63.83
2023-06-29T09:28:06.879Z,64.15
2023-06-29T09:30:40.333Z,65.94
2023-06-29T09:33:12.375Z,65.31
2023-06-29T09:35:46.023Z,65.39
2023-06-29T09:38:13.786Z,65.08
2023-06-29T09:40:54.089Z,64.74
2023-06-29T09:43:29.179Z,66.34
2023-06-29T09:46:13.770Z,64.77
2023-06-29T09:51:21.958Z,63.49
2023-06-29T09:53:48.799Z,62.43
2023-06-29T09:56:17.341Z,63.49
2023-06-29T09:58:44.275Z,63.87
2023-06-29T10:01:10.978Z,63.03
2023-06-29T10:03:37.673Z,62.97
2023-06-29T10:06:14.756Z,62.82
2023-06-29T10:08:43.287Z,62.31
2023-06-29T10:11:09.907Z,60.47
2023-06-29T10:13:50.623Z,62.03
2023-06-29T10:16:22.223Z,61.53
2023-06-29T10:18:51.971Z,61.91
2023-06-29T10:21:18.709Z,61.84
2023-06-29T10:23:46.629Z,62.25
2023-06-29T10:26:13.804Z,63.04
2023-06-29T10:28:40.981Z,63.02
2023-06-29T10:31:07.641Z,62.47
2023-06-29T10:33:46.841Z,62.72
2023-06-29T10:36:15.006Z,62.08
2023-06-29T10:38:41.871Z,61.22
2023-06-29T10:41:08.571Z,61.08
2023-06-29T10:43:57.371Z,60.95
2023-06-29T10:46:45.872Z,61.39
2023-06-29T10:49:26.561Z,60.33
2023-06-29T10:52:16.805Z,57.77
2023-06-29T10:54:43.354Z,57.03
2023-06-29T10:57:11.472Z,57.52
2023-06-29T10:59:39.769Z,55.19
2023-06-29T11:02:08.934Z,55.45
2023-06-29T11:04:35.672Z,55.41
2023-06-29T11:07:08.093Z,55.28
2023-06-29T11:09:35.490Z,54.37
2023-06-29T11:12:02.061Z,56.69
2023-06-29T11:14:29.749Z,55.91
2023-06-29T11:16:56.669Z,55.38
2023-06-29T11:19:28.600Z,56.32
2023-06-29T11:21:55.754Z,57.03
2023-06-29T11:24:23.111Z,57.54
2023-06-29T11:26:49.805Z,57.30
2023-06-29T11:29:16.458Z,57.61
2023-06-29T11:31:43.003Z,57.30
2023-06-29T11:34:13.822Z,57.03
2023-06-29T11:36:40.472Z,56.55
2023-06-29T11:39:11.690Z,57.27
2023-06-29T11:41:38.651Z,58.10
2023-06-29T11:44:05.528Z,56.99
2023-06-29T11:46:34.475Z,57.62
2023-06-29T11:49:04.411Z,57.62
2023-06-29T11:51:39.857Z,57.41
2023-06-29T11:54:08.444Z,58.03
2023-06-29T11:56:37.189Z,57.45
2023-06-29T11:59:11.276Z,56.80
2023-06-29T12:01:39.699Z,57.96
2023-06-29T12:04:16.000Z,58.85
2023-06-29T12:06:57.582Z,57.61
2023-06-29T12:09:31.661Z,58.16
2023-06-29T12:12:03.431Z,58.19
2023-06-29T12:14:33.798Z,58.24
2023-06-29T12:19:35.585Z,57.82
2023-06-29T12:22:02.955Z,57.99
2023-06-29T12:24:30.133Z,57.07
2023-06-29T12:26:57.694Z,58.85
2023-06-29T12:29:24.269Z,58.85
2023-06-29T12:31:50.883Z,58.84
2023-06-29T12:34:17.495Z,59.03
2023-06-29T12:36:44.087Z,59.61
2023-06-29T12:39:10.580Z,59.69
2023-06-29T12:41:37.178Z,57.41
2023-06-29T12:44:03.866Z,56.13
2023-06-29T12:46:32.640Z,54.42
2023-06-29T12:49:00.858Z,53.20
2023-06-29T12:51:29.360Z,54.21
2023-06-29T12:53:56.789Z,54.69
2023-06-29T12:56:23.327Z,54.23
2023-06-29T12:58:49.895Z,55.56
2023-06-29T13:01:16.461Z,57.04
2023-06-29T13:03:43.127Z,57.66
2023-06-29T13:06:09.753Z,58.33
2023-06-29T13:08:36.320Z,59.83
2023-06-29T13:11:03.323Z,62.49
2023-06-29T13:13:31.222Z,63.73
2023-06-29T13:15:57.774Z,64.31
2023-06-29T13:18:25.757Z,65.61
2023-06-29T13:20:52.531Z,66.26
2023-06-29T13:23:19.116Z,67.52
2023-06-29T13:25:45.767Z,66.93
2023-06-29T13:28:13.059Z,67.56
2023-06-29T13:30:40.971Z,66.74
2023-06-29T13:33:08.339Z,66.15
2023-06-29T13:35:34.921Z,65.33
2023-06-29T13:38:01.533Z,65.07
2023-06-29T13:40:29.360Z,64.80
2023-06-29T13:42:56.198Z,61.90
2023-06-29T13:45:22.852Z,60.03
2023-06-29T13:47:58.335Z,59.57
2023-06-29T13:50:28.590Z,58.18
2023-06-29T13:53:02.704Z,58.15
2023-06-29T13:55:29.577Z,54.97
2023-06-29T13:57:56.095Z,52.81
2023-06-29T14:00:22.832Z,52.95
2023-06-29T14:02:51.192Z,54.12
2023-06-29T14:05:18.549Z,53.53
2023-06-29T14:07:45.049Z,53.20
2023-06-29T14:10:11.642Z,54.12
2023-06-29T14:12:38.140Z,53.86
2023-06-29T14:15:05.156Z,54.50
2023-06-29T14:17:31.701Z,52.82
2023-06-29T14:19:58.262Z,52.96
2023-06-29T14:22:24.769Z,53.67
2023-06-29T14:24:51.806Z,55.03
2023-06-29T14:27:19.944Z,55.04
2023-06-29T14:29:46.533Z,55.49
2023-06-29T14:32:14.690Z,56.56
2023-06-29T14:34:41.380Z,56.99
2023-06-29T14:37:08.320Z,58.40
2023-06-29T14:39:34.826Z,57.59
2023-06-29T14:42:02.820Z,57.35
2023-06-29T14:44:29.364Z,57.60
2023-06-29T14:46:57.131Z,58.44
2023-06-29T14:49:23.711Z,59.35
2023-06-29T14:51:50.265Z,60.90
2023-06-29T14:54:20.493Z,60.09
2023-06-29T14:56:47.002Z,61.22
2023-06-29T14:59:13.714Z,60.55
2023-06-29T15:01:40.408Z,59.70
2023-06-29T15:04:07.373Z,60.82
2023-06-29T15:06:34.026Z,61.33
2023-06-29T15:09:00.559Z,61.78
2023-06-29T15:11:27.276Z,62.86
2023-06-29T15:13:54.930Z,62.70
2023-06-29T15:16:21.532Z,62.17
2023-06-29T15:18:59.179Z,63.03
2023-06-29T15:21:27.076Z,63.13
2023-06-29T15:23:53.797Z,62.29
2023-06-29T15:26:20.350Z,61.99
2023-06-29T15:28:46.918Z,60.44
2023-06-29T15:31:13.484Z,59.09
2023-06-29T15:33:40.038Z,58.66
2023-06-29T15:36:06.538Z,58.56
2023-06-29T15:38:34.721Z,59.76
2023-06-29T15:41:02.134Z,59.06
2023-06-29T15:43:28.774Z,59.14
2023-06-29T15:45:55.337Z,60.02
2023-06-29T15:48:21.947Z,60.31
2023-06-29T15:50:48.723Z,59.82
2023-06-29T15:53:15.391Z,59.31
2023-06-29T15:55:41.948Z,58.32
2023-06-29T15:58:08.487Z,58.80
2023-06-29T16:00:35.045Z,59.05
2023-06-29T16:03:01.747Z,59.38
2023-06-29T16:05:28.684Z,60.60
2023-06-29T16:07:55.182Z,59.43
2023-06-29T16:10:21.823Z,60.17
2023-06-29T16:12:48.392Z,60.89
2023-06-29T16:15:15.029Z,60.98
2023-06-29T16:17:41.716Z,62.62
2023-06-29T16:20:09.401Z,61.69
2023-06-29T16:22:38.100Z,62.76
2023-06-29T16:25:08.407Z,64.52
2023-06-29T16:27:34.945Z,65.79
2023-06-29T16:30:01.607Z,65.89
2023-06-29T16:32:28.288Z,66.56
2023-06-29T16:34:54.928Z,67.15
2023-06-29T16:37:21.508Z,67.63
2023-06-29T16:39:48.046Z,68.25
2023-06-29T16:42:15.476Z,68.71
2023-06-29T16:44:42.077Z,69.33
2023-06-29T16:47:08.600Z,69.11
2023-06-29T16:49:35.234Z,69.59
2023-06-29T16:52:01.844Z,70.51
2023-06-29T16:54:28.470Z,70.66
2023-06-29T16:56:55.048Z,71.06
2023-06-29T16:59:21.598Z,71.20
2023-06-29T17:01:48.346Z,71.59
2023-06-29T17:04:15.243Z,71.29
2023-06-29T17:06:41.835Z,70.96
2023-06-29T17:09:08.330Z,71.07
2023-06-29T17:11:34.853Z,70.92
2023-06-29T17:14:01.630Z,71.35
2023-06-29T17:16:28.310Z,71.56
2023-06-29T17:18:54.955Z,71.58
2023-06-29T17:21:22.057Z,71.92
2023-06-29T17:23:53.447Z,71.86
2023-06-29T17:26:20.243Z,72.42
2023-06-29T17:28:46.789Z,72.72
2023-06-29T17:31:13.401Z,72.83
2023-06-29T17:33:49.884Z,73.04
2023-06-29T17:36:21.933Z,73.48
2023-06-29T17:38:48.598Z,74.64
2023-06-29T17:41:15.319Z,75.55
2023-06-29T17:43:41.896Z,75.79
2023-06-29T17:46:08.431Z,77.27
2023-06-29T17:48:35.050Z,78.55
2023-06-29T17:51:13.226Z,79.56
2023-06-29T17:53:39.821Z,81.05
2023-06-29T17:56:06.361Z,81.49
2023-06-29T17:58:32.914Z,82.60
2023-06-29T18:00:59.516Z,82.18
2023-06-29T18:03:26.094Z,81.89
2023-06-29T18:05:55.237Z,82.53
2023-06-29T18:08:22.403Z,82.31
2023-06-29T18:10:49.135Z,82.89
2023-06-29T18:13:15.689Z,82.55
2023-06-29T18:15:42.352Z,81.47
2023-06-29T18:18:08.942Z,78.96
2023-06-29T18:20:35.450Z,78.85
2023-06-29T18:23:02.022Z,78.42
2023-06-29T18:25:28.700Z,78.00
2023-06-29T18:27:55.245Z,78.03
2023-06-29T18:30:21.868Z,77.61
2023-06-29T18:32:48.549Z,77.76
2023-06-29T18:35:15.131Z,77.95
2023-06-29T18:37:46.101Z,78.32
2023-06-29T18:40:14.353Z,78.61
2023-06-29T18:42:41.586Z,78.52
2023-06-29T18:45:10.481Z,77.94
2023-06-29T18:47:37.073Z,78.77
2023-06-29T18:50:04.814Z,78.46
2023-06-29T18:52:31.320Z,75.47
2023-06-29T18:54:57.982Z,75.19
2023-06-29T18:57:24.623Z,73.85
2023-06-29T18:59:51.144Z,73.75
2023-06-29T19:02:17.853Z,73.58
2023-06-29T19:04:44.766Z,74.15
2023-06-29T19:07:12.536Z,73.75
2023-06-29T19:09:39.240Z,73.96
2023-06-29T19:12:06.024Z,74.20
2023-06-29T19:14:32.564Z,74.49
2023-06-29T19:16:59.410Z,74.29
2023-06-29T19:19:26.676Z,74.24
2023-06-29T19:21:53.675Z,73.54
2023-06-29T19:24:20.740Z,73.51
2023-06-29T19:26:47.578Z,74.02
2023-06-29T19:29:14.780Z,72.93
2023-06-29T19:31:44.514Z,73.25
2023-06-29T19:34:12.099Z,73.22
2023-06-29T19:36:39.008Z,73.30
2023-06-29T19:39:05.616Z,73.35
2023-06-29T19:41:32.211Z,73.68
2023-06-29T19:43:58.807Z,73.67
2023-06-29T19:46:25.405Z,73.65
2023-06-29T19:48:52.066Z,73.89
2023-06-29T19:51:18.730Z,73.69
2023-06-29T19:53:45.437Z,74.04
2023-06-29T19:56:12.132Z,74.29
2023-06-29T19:58:38.866Z,74.51
2023-06-29T20:01:05.517Z,74.63
2023-06-29T20:03:32.406Z,74.18
2023-06-29T20:05:59.089Z,74.92
2023-06-29T20:08:25.855Z,74.50
2023-06-29T20:10:53.132Z,74.94
2023-06-29T20:13:20.911Z,75.16
2023-06-29T20:15:47.888Z,75.50
2023-06-29T20:18:14.836Z,76.04
2023-06-29T20:20:41.462Z,76.20
2023-06-29T20:23:08.260Z,76.77
2023-06-29T20:25:34.879Z,77.07
2023-06-29T20:28:01.512Z,77.75
2023-06-29T20:30:28.145Z,77.48
2023-06-29T20:32:54.913Z,77.86
2023-06-29T20:35:21.593Z,78.02
2023-06-29T20:37:48.032Z,78.00
2023-06-29T20:40:14.892Z,77.46
2023-06-29T20:42:41.444Z,78.17
2023-06-29T20:45:09.862Z,77.74
2023-06-29T20:47:36.504Z,77.20
2023-06-29T20:50:03.181Z,77.24
2023-06-29T20:52:29.794Z,76.65
2023-06-29T20:54:56.367Z,76.74
2023-06-29T20:57:23.487Z,75.40
2023-06-29T20:59:50.211Z,75.17
2023-06-29T21:02:18.733Z,75.10
2023-06-29T21:04:45.870Z,74.81
2023-06-29T21:07:12.756Z,74.60
2023-06-29T21:09:39.562Z,74.62
2023-06-29T21:12:06.751Z,74.34
2023-06-29T21:14:33.548Z,73.68
2023-06-29T21:17:00.209Z,73.71
2023-06-29T21:19:27.062Z,73.94
2023-06-29T21:21:53.775Z,73.84
2023-06-29T21:24:20.492Z,73.18
2023-06-29T21:26:47.135Z,73.22
2023-06-29T21:29:33.272Z,73.54
2023-06-29T21:32:04.148Z,73.03
2023-06-29T21:34:31.442Z,73.47
2023-06-29T21:36:58.608Z,73.50
2023-06-29T21:39:25.261Z,73.43
2023-06-29T21:41:51.912Z,73.69
2023-06-29T21:44:18.512Z,74.08
2023-06-29T21:46:45.226Z,74.64
2023-06-29T21:49:11.972Z,74.36
2023-06-29T21:51:38.957Z,72.97
2023-06-29T21:54:06.004Z,73.27
2023-06-29T21:56:32.585Z,72.35
2023-06-29T21:58:59.155Z,73.06
2023-06-29T22:01:25.697Z,72.82
2023-06-29T22:03:52.319Z,72.78
2023-06-29T22:06:19.445Z,73.52
2023-06-29T22:08:46.101Z,74.16
2023-06-29T22:11:12.592Z,74.46
2023-06-29T22:13:39.167Z,74.89
2023-06-29T22:16:05.740Z,76.02
2023-06-29T22:18:32.298Z,76.19
2023-06-29T22:20:59.102Z,76.58
2023-06-29T22:23:25.666Z,77.30
2023-06-29T22:25:52.245Z,77.54
2023-06-29T22:28:19.078Z,77.84
2023-06-29T22:30:45.720Z,78.09
2023-06-29T22:33:12.621Z,78.00
2023-06-29T22:35:39.343Z,77.91
2023-06-29T22:38:09.472Z,77.98
2023-06-29T22:40:39.088Z,78.13
2023-06-29T22:43:05.609Z,78.66
2023-06-29T22:45:32.315Z,78.33
2023-06-29T22:47:59.443Z,78.32
2023-06-29T22:50:26.131Z,78.16
2023-06-29T22:52:53.322Z,78.45
2023-06-29T22:55:20.110Z,78.97
2023-06-29T22:57:46.716Z,79.13
2023-06-29T23:00:13.767Z,79.28
2023-06-29T23:02:40.477Z,79.94
2023-06-29T23:05:07.706Z,79.98
2023-06-29T23:07:34.533Z,80.23
2023-06-29T23:10:01.188Z,80.74
2023-06-29T23:12:27.708Z,80.99
2023-06-29T23:14:55.887Z,81.25
2023-06-29T23:17:26.694Z,81.44
2023-06-29T23:19:53.430Z,81.63
2023-06-29T23:22:19.971Z,82.28
2023-06-29T23:24:46.824Z,82.25
2023-06-29T23:27:13.830Z,82.51
2023-06-29T23:29:40.415Z,83.29
2023-06-29T23:32:08.066Z,83.69
2023-06-29T23:34:34.702Z,83.99
2023-06-29T23:37:01.614Z,84.00
2023-06-29T23:39:28.259Z,84.37
2023-06-29T23:41:54.822Z,84.50
2023-06-29T23:44:21.428Z,85.29
2023-06-29T23:46:52.585Z,85.32
2023-06-29T23:49:21.574Z,85.62
2023-06-29T23:51:48.725Z,86.10
2023-06-29T23:54:16.452Z,86.53
2023-06-29T23:56:47.412Z,86.57
2023-06-29T23:59:13.968Z,86.76
